createdAt,value
2022-10-04T00:01:50.663Z,13.94
2022-10-04T00:04:25.373Z,13.92
2022-10-04T00:07:00.895Z,13.93
2022-10-04T00:09:37.609Z,13.92
2022-10-04T00:12:06.928Z,13.91
2022-10-04T00:14:38.982Z,13.90
2022-10-04T00:17:13.670Z,13.88
2022-10-04T00:19:47.122Z,13.86
2022-10-04T00:22:21.521Z,13.85
2022-10-04T00:25:20.429Z,13.81
2022-10-04T00:28:32.618Z,13.77
2022-10-04T00:31:20.420Z,13.75
2022-10-04T00:33:52.239Z,13.74
2022-10-04T00:36:45.803Z,13.75
2022-10-04T00:39:28.637Z,13.75
2022-10-04T00:42:20.461Z,13.73
2022-10-04T00:44:56.006Z,13.73
2022-10-04T00:47:32.234Z,13.74
2022-10-04T00:50:14.209Z,13.74
2022-10-04T00:52:49.254Z,13.73
2022-10-04T00:55:26.883Z,13.74
2022-10-04T00:58:00.920Z,13.75
2022-10-04T01:00:33.366Z,13.76
2022-10-04T01:03:06.835Z,13.79
2022-10-04T01:05:37.646Z,13.80
2022-10-04T01:08:10.157Z,13.79
2022-10-04T01:10:46.347Z,13.81
2022-10-04T01:13:21.395Z,13.82
2022-10-04T01:15:55.402Z,13.82
2022-10-04T01:18:33.285Z,13.81
2022-10-04T01:21:06.422Z,13.80
2022-10-04T01:23:47.506Z,13.80
2022-10-04T01:26:42.170Z,13.80
2022-10-04T01:29:15.594Z,13.80
2022-10-04T01:31:46.274Z,13.81
2022-10-04T01:34:17.225Z,13.84
2022-10-04T01:36:47.286Z,13.85
2022-10-04T01:39:19.452Z,13.85
2022-10-04T01:41:55.528Z,13.85
2022-10-04T01:44:31.553Z,13.86
2022-10-04T01:47:09.760Z,13.85
2022-10-04T01:49:40.467Z,13.85
2022-10-04T01:52:17.180Z,13.83
2022-10-04T01:54:51.168Z,13.83
2022-10-04T01:57:24.104Z,13.82
2022-10-04T01:59:58.692Z,13.82
2022-10-04T02:02:32.743Z,13.80
2022-10-04T02:05:03.269Z,13.80
2022-10-04T02:07:34.357Z,13.80
2022-10-04T02:10:08.805Z,13.81
2022-10-04T02:12:38.645Z,13.82
2022-10-04T02:15:11.481Z,13.84
2022-10-04T02:17:44.217Z,13.82
2022-10-04T02:20:17.823Z,13.83
2022-10-04T02:22:48.272Z,13.82
2022-10-04T02:25:20.855Z,13.80
2022-10-04T02:27:49.175Z,13.79
2022-10-04T02:30:17.327Z,13.78
2022-10-04T02:32:57.815Z,13.77
2022-10-04T02:35:28.786Z,13.77
2022-10-04T02:38:08.872Z,13.76
2022-10-04T02:40:45.986Z,13.76
2022-10-04T02:43:18.794Z,13.73
2022-10-04T02:45:52.462Z,13.71
2022-10-04T02:48:35.903Z,13.69
2022-10-04T02:51:18.729Z,13.67
2022-10-04T02:53:54.694Z,13.65
2022-10-04T02:56:25.960Z,13.64
2022-10-04T02:58:55.431Z,13.62
2022-10-04T03:01:30.030Z,13.60
2022-10-04T03:03:59.869Z,13.59
2022-10-04T03:06:33.326Z,13.56
2022-10-04T03:09:04.907Z,13.52
2022-10-04T03:11:37.342Z,13.46
2022-10-04T03:14:10.627Z,13.43
2022-10-04T03:16:42.086Z,13.41
2022-10-04T03:19:11.655Z,13.40
2022-10-04T03:21:41.917Z,13.38
2022-10-04T03:24:17.241Z,13.36
2022-10-04T03:26:50.142Z,13.35
2022-10-04T03:29:20.715Z,13.34
2022-10-04T03:31:52.061Z,13.34
2022-10-04T03:34:24.341Z,13.34
2022-10-04T03:36:56.253Z,13.32
2022-10-04T03:39:30.065Z,13.30
2022-10-04T03:41:59.965Z,13.28
2022-10-04T03:44:28.576Z,13.24
2022-10-04T03:46:57.081Z,13.19
2022-10-04T03:49:34.451Z,13.15
2022-10-04T03:52:04.462Z,13.12
2022-10-04T03:54:34.552Z,13.10
2022-10-04T03:57:04.854Z,13.08
2022-10-04T03:59:34.493Z,13.06
2022-10-04T04:02:11.345Z,13.05
2022-10-04T04:04:50.769Z,13.04
2022-10-04T04:07:26.112Z,13.03
2022-10-04T04:10:02.904Z,13.04
2022-10-04T04:12:39.955Z,13.03
2022-10-04T04:15:12.714Z,13.03
2022-10-04T04:17:42.530Z,13.04
2022-10-04T04:20:26.293Z,13.04
2022-10-04T04:23:02.322Z,13.03
2022-10-04T04:25:35.946Z,13.03
2022-10-04T04:28:17.682Z,13.01
2022-10-04T04:30:48.269Z,13.01
2022-10-04T04:33:26.917Z,12.99
2022-10-04T04:35:57.430Z,12.97
2022-10-04T04:38:27.129Z,12.96
2022-10-04T04:40:56.121Z,12.97
2022-10-04T04:43:29.026Z,12.95
2022-10-04T04:46:22.403Z,12.93
2022-10-04T04:48:48.635Z,12.90
2022-10-04T04:51:23.556Z,12.89
2022-10-04T04:53:53.416Z,12.85
2022-10-04T04:56:26.469Z,12.83
2022-10-04T04:58:59.997Z,12.79
2022-10-04T05:01:33.730Z,12.76
2022-10-04T05:04:04.344Z,12.70
2022-10-04T05:06:36.345Z,12.64
2022-10-04T05:09:05.656Z,12.62
2022-10-04T05:11:37.224Z,12.59
2022-10-04T05:14:10.187Z,12.56
2022-10-04T05:16:43.933Z,12.51
2022-10-04T05:19:17.093Z,12.46
2022-10-04T05:21:48.005Z,12.40
2022-10-04T05:24:23.539Z,12.34
2022-10-04T05:26:53.197Z,12.30
2022-10-04T05:29:26.899Z,12.28
2022-10-04T05:32:05.654Z,12.23
2022-10-04T05:34:40.669Z,12.26
2022-10-04T05:37:27.335Z,12.22
2022-10-04T05:40:07.637Z,12.17
2022-10-04T05:42:41.477Z,12.10
2022-10-04T05:45:22.802Z,12.03
2022-10-04T05:47:53.651Z,11.97
2022-10-04T05:50:30.765Z,11.93
2022-10-04T05:53:22.711Z,11.87
2022-10-04T05:55:59.174Z,11.83
2022-10-04T05:58:55.720Z,11.77
2022-10-04T06:01:45.812Z,11.76
2022-10-04T06:04:45.080Z,11.78
2022-10-04T06:07:24.490Z,11.79
2022-10-04T06:10:27.576Z,11.81
2022-10-04T06:13:04.448Z,11.83
2022-10-04T06:15:58.743Z,11.83
2022-10-04T06:19:02.505Z,11.83
2022-10-04T06:21:32.926Z,11.84
2022-10-04T06:24:05.989Z,11.87
2022-10-04T06:26:40.488Z,11.92
2022-10-04T06:29:14.854Z,11.94
2022-10-04T06:32:12.274Z,11.97
2022-10-04T06:35:30.609Z,12.00
2022-10-04T06:38:23.490Z,12.03
2022-10-04T06:41:08.254Z,12.09
2022-10-04T06:44:24.326Z,12.10
2022-10-04T06:47:01.829Z,12.14
2022-10-04T06:49:40.972Z,12.16
2022-10-04T06:52:32.368Z,12.22
2022-10-04T06:55:48.556Z,12.27
2022-10-04T06:59:00.177Z,12.38
2022-10-04T07:01:31.783Z,12.48
2022-10-04T07:04:14.170Z,12.60
2022-10-04T07:06:50.623Z,12.73
2022-10-04T07:09:25.375Z,12.86
2022-10-04T07:11:59.881Z,12.99
2022-10-04T07:14:35.437Z,13.11
2022-10-04T07:17:12.361Z,13.26
2022-10-04T07:19:46.270Z,13.38
2022-10-04T07:22:19.156Z,13.56
2022-10-04T07:25:02.192Z,13.74
2022-10-04T07:27:35.881Z,13.89
2022-10-04T07:30:08.087Z,14.06
2022-10-04T07:32:39.676Z,14.17
2022-10-04T07:35:21.322Z,14.31
2022-10-04T07:37:57.755Z,14.41
2022-10-04T07:40:32.847Z,14.51
2022-10-04T07:43:06.802Z,14.55
2022-10-04T07:45:37.224Z,14.52
2022-10-04T07:48:16.263Z,14.53
2022-10-04T07:50:53.617Z,14.56
2022-10-04T07:53:27.647Z,14.64
2022-10-04T07:56:03.676Z,14.76
2022-10-04T07:58:50.244Z,14.94
2022-10-04T08:01:29.888Z,15.17
2022-10-04T08:04:18.444Z,15.46
2022-10-04T08:06:59.335Z,15.75
2022-10-04T08:09:45.511Z,15.90
2022-10-04T08:12:22.985Z,15.91
2022-10-04T08:14:58.343Z,15.92
2022-10-04T08:17:39.590Z,15.93
2022-10-04T08:20:26.570Z,15.88
2022-10-04T08:23:24.293Z,15.84
2022-10-04T08:26:08.786Z,15.82
2022-10-04T08:29:05.540Z,15.75
2022-10-04T08:31:54.080Z,15.68
2022-10-04T08:34:43.365Z,15.57
2022-10-04T08:37:29.623Z,15.48
2022-10-04T08:40:24.057Z,15.44
2022-10-04T08:43:34.358Z,15.43
2022-10-04T08:46:44.114Z,15.49
2022-10-04T08:49:59.427Z,15.59
2022-10-04T08:53:16.397Z,15.73
2022-10-04T08:56:18.360Z,15.83
2022-10-04T08:59:18.662Z,15.92
2022-10-04T09:02:00.303Z,16.02
2022-10-04T09:05:02.873Z,16.09
2022-10-04T09:08:43.378Z,16.17
2022-10-04T09:11:34.075Z,16.31
2022-10-04T09:14:23.514Z,16.37
2022-10-04T09:17:07.818Z,16.47
2022-10-04T09:19:54.977Z,16.54
2022-10-04T09:22:44.174Z,16.59
2022-10-04T09:25:49.403Z,16.63
2022-10-04T09:29:13.466Z,16.68
2022-10-04T09:32:33.802Z,16.76
2022-10-04T09:35:24.180Z,16.79
2022-10-04T09:38:20.721Z,16.79
2022-10-04T09:41:15.507Z,16.78
2022-10-04T09:44:20.268Z,16.82
2022-10-04T09:47:31.180Z,16.88
2022-10-04T09:50:26.438Z,16.97
2022-10-04T09:53:12.682Z,17.08
2022-10-04T09:56:14.286Z,17.19
2022-10-04T09:59:18.593Z,17.30
2022-10-04T10:02:12.899Z,17.38
2022-10-04T10:04:54.607Z,17.44
2022-10-04T10:07:38.003Z,17.50
2022-10-04T10:10:38.361Z,17.56
2022-10-04T10:13:43.901Z,17.62
2022-10-04T10:16:30.733Z,17.69
2022-10-04T10:19:28.510Z,17.79
2022-10-04T10:22:31.156Z,17.84
2022-10-04T10:25:31.459Z,17.91
2022-10-04T10:28:26.453Z,17.93
2022-10-04T10:31:27.499Z,17.99
2022-10-04T10:34:37.723Z,18.09
2022-10-04T10:37:15.937Z,18.21
2022-10-04T10:40:21.031Z,18.27
2022-10-04T10:43:21.597Z,18.26
2022-10-04T10:46:15.591Z,18.26
2022-10-04T10:49:09.743Z,18.30
2022-10-04T10:52:20.215Z,18.43
2022-10-04T10:55:30.601Z,18.52
2022-10-04T10:58:44.217Z,18.58
2022-10-04T11:02:04.936Z,18.62
2022-10-04T11:04:54.827Z,18.67
2022-10-04T11:07:51.611Z,18.68
2022-10-04T11:11:03.332Z,18.66
2022-10-04T11:14:13.616Z,18.67
2022-10-04T11:17:21.129Z,18.78
2022-10-04T11:20:35.322Z,18.93
2022-10-04T11:23:40.171Z,19.07
2022-10-04T11:26:55.871Z,19.20
2022-10-04T11:30:05.910Z,19.32
2022-10-04T11:33:39.178Z,19.42
2022-10-04T11:36:25.941Z,19.59
2022-10-04T11:39:22.035Z,19.77
2022-10-04T11:41:56.783Z,20.00
2022-10-04T11:45:11.106Z,20.22
2022-10-04T11:48:01.907Z,20.51
2022-10-04T11:50:42.005Z,20.85
2022-10-04T11:54:04.591Z,21.14
2022-10-04T11:57:00.020Z,21.46
2022-10-04T11:59:45.518Z,21.68
2022-10-04T12:03:16.632Z,21.88
2022-10-04T12:06:09.338Z,22.10
2022-10-04T12:09:05.594Z,22.22
2022-10-04T12:12:36.287Z,22.30
2022-10-04T12:15:40.462Z,22.39
2022-10-04T12:19:21.399Z,22.58
2022-10-04T12:22:21.016Z,22.79
2022-10-04T12:25:54.124Z,22.94
2022-10-04T12:29:04.491Z,23.50
2022-10-04T12:31:36.254Z,23.79
2022-10-04T12:34:17.390Z,24.01
2022-10-04T12:37:15.207Z,24.32
2022-10-04T12:40:16.090Z,24.79
2022-10-04T12:42:55.762Z,25.18
2022-10-04T12:45:39.549Z,25.35
2022-10-04T12:48:27.816Z,25.25
2022-10-04T12:51:11.018Z,25.18
2022-10-04T12:53:49.337Z,25.50
2022-10-04T12:56:37.273Z,25.73
2022-10-04T12:59:31.520Z,25.79
2022-10-04T13:02:21.216Z,25.89
2022-10-04T13:04:54.574Z,25.86
2022-10-04T13:07:59.665Z,25.80
2022-10-04T13:10:58.847Z,25.64
2022-10-04T13:13:52.511Z,25.50
2022-10-04T13:19:35.994Z,25.41
2022-10-04T13:22:51.410Z,25.20
2022-10-04T13:25:28.498Z,25.25
2022-10-04T13:28:05.372Z,25.57
2022-10-04T13:30:44.407Z,26.12
2022-10-04T13:33:23.827Z,26.19
2022-10-04T13:36:00.930Z,26.44
2022-10-04T13:39:10.303Z,26.95
2022-10-04T13:42:01.295Z,27.38
2022-10-04T13:45:03.276Z,27.57
2022-10-04T13:47:57.996Z,27.29
2022-10-04T13:50:49.831Z,26.12
2022-10-04T13:53:54.097Z,25.16
2022-10-04T13:56:59.259Z,24.31
2022-10-04T13:59:43.966Z,23.97
2022-10-04T14:03:09.022Z,23.66
2022-10-04T14:06:47.172Z,23.40
2022-10-04T14:09:52.309Z,23.02
2022-10-04T14:13:06.268Z,22.76
2022-10-04T14:16:27.886Z,22.53
2022-10-04T14:20:07.056Z,22.30
2022-10-04T14:23:02.937Z,22.14
2022-10-04T14:26:16.891Z,21.94
2022-10-04T14:29:21.569Z,21.84
2022-10-04T14:32:21.164Z,21.65
2022-10-04T14:35:01.411Z,21.51
2022-10-04T14:38:14.184Z,21.40
2022-10-04T14:41:10.641Z,21.36
2022-10-04T14:44:25.803Z,21.18
2022-10-04T14:47:11.666Z,21.07
2022-10-04T14:50:05.119Z,21.03
2022-10-04T14:52:45.818Z,21.01
2022-10-04T14:55:34.550Z,20.96
2022-10-04T14:58:18.240Z,20.88
2022-10-04T15:01:09.373Z,20.80
2022-10-04T15:03:51.641Z,20.77
2022-10-04T15:06:37.007Z,20.82
2022-10-04T15:09:28.119Z,20.89
2022-10-04T15:12:32.689Z,20.87
2022-10-04T15:15:30.743Z,20.77
2022-10-04T15:18:05.549Z,20.75
2022-10-04T15:20:49.479Z,20.66
2022-10-04T15:23:31.090Z,20.55
2022-10-04T15:26:08.215Z,20.45
2022-10-04T15:29:00.039Z,20.33
2022-10-04T15:31:35.932Z,20.23
2022-10-04T15:34:26.025Z,20.19
2022-10-04T15:37:12.799Z,20.16
2022-10-04T15:40:25.250Z,20.11
2022-10-04T15:43:17.083Z,20.31
2022-10-04T15:46:31.651Z,20.56
2022-10-04T15:49:37.801Z,20.66
2022-10-04T15:52:16.122Z,20.69
2022-10-04T15:55:09.790Z,20.89
2022-10-04T15:58:22.336Z,20.81
2022-10-04T16:01:18.708Z,20.60
2022-10-04T16:04:11.404Z,20.48
2022-10-04T16:06:51.668Z,20.31
2022-10-04T16:09:32.045Z,20.15
2022-10-04T16:12:20.429Z,20.01
2022-10-04T16:14:59.513Z,19.88
2022-10-04T16:17:46.485Z,19.70
2022-10-04T16:20:52.339Z,19.46
2022-10-04T16:23:32.517Z,19.28
2022-10-04T16:26:04.958Z,19.13
2022-10-04T16:29:06.720Z,18.99
2022-10-04T16:31:56.053Z,18.83
2022-10-04T16:34:48.071Z,18.66
2022-10-04T16:37:27.535Z,18.52
2022-10-04T16:40:03.306Z,18.37
2022-10-04T16:42:46.898Z,18.22
2022-10-04T16:45:50.584Z,18.03
2022-10-04T16:48:33.719Z,17.90
2022-10-04T16:51:35.635Z,17.75
2022-10-04T16:54:27.713Z,17.64
2022-10-04T16:57:19.621Z,17.51
2022-10-04T16:59:56.861Z,17.42
2022-10-04T17:02:53.756Z,17.33
2022-10-04T17:05:37.092Z,17.27
2022-10-04T17:08:33.095Z,17.28
2022-10-04T17:11:29.090Z,17.24
2022-10-04T17:14:03.848Z,17.17
2022-10-04T17:16:39.958Z,17.08
2022-10-04T17:19:32.158Z,17.02
2022-10-04T17:22:17.251Z,17.00
2022-10-04T17:25:02.421Z,17.02
2022-10-04T17:27:48.407Z,17.08
2022-10-04T17:30:23.225Z,17.15
2022-10-04T17:33:12.496Z,17.15
2022-10-04T17:36:10.286Z,17.13
2022-10-04T17:38:49.824Z,17.08
2022-10-04T17:41:25.730Z,17.05
2022-10-04T17:44:36.946Z,16.99
2022-10-04T17:47:14.740Z,16.97
2022-10-04T17:50:13.663Z,16.96
2022-10-04T17:53:19.467Z,16.92
2022-10-04T17:55:52.963Z,16.90
2022-10-04T17:58:25.985Z,16.88
2022-10-04T18:01:01.771Z,16.88
2022-10-04T18:03:40.817Z,16.91
2022-10-04T18:06:27.402Z,16.93
2022-10-04T18:08:59.402Z,16.99
2022-10-04T18:11:35.718Z,17.02
2022-10-04T18:14:10.045Z,17.05
2022-10-04T18:16:51.168Z,17.05
2022-10-04T18:19:39.956Z,17.10
2022-10-04T18:22:15.569Z,17.10
2022-10-04T18:24:45.412Z,17.13
2022-10-04T18:27:21.102Z,17.14
2022-10-04T18:30:09.054Z,17.14
2022-10-04T18:32:38.103Z,17.16
2022-10-04T18:35:26.569Z,17.15
2022-10-04T18:37:57.055Z,17.16
2022-10-04T18:40:28.894Z,17.16
2022-10-04T18:43:01.689Z,17.15
2022-10-04T18:45:32.244Z,17.15
2022-10-04T18:48:03.597Z,17.11
2022-10-04T18:50:43.461Z,17.13
2022-10-04T18:53:41.222Z,17.12
2022-10-04T18:56:11.667Z,17.13
2022-10-04T18:59:20.481Z,17.14
2022-10-04T19:02:07.898Z,17.14
2022-10-04T19:04:49.764Z,17.17
2022-10-04T19:07:25.043Z,17.17
2022-10-04T19:10:07.700Z,17.15
2022-10-04T19:12:48.863Z,17.15
2022-10-04T19:15:45.849Z,17.15
2022-10-04T19:18:34.419Z,17.15
2022-10-04T19:21:16.163Z,17.15
2022-10-04T19:24:10.954Z,17.14
2022-10-04T19:26:42.356Z,17.15
2022-10-04T19:29:26.038Z,17.17
2022-10-04T19:32:00.148Z,17.18
2022-10-04T19:34:46.740Z,17.20
2022-10-04T19:37:26.463Z,17.20
2022-10-04T19:40:08.891Z,17.21
2022-10-04T19:42:49.008Z,17.22
2022-10-04T19:45:28.545Z,17.24
2022-10-04T19:47:59.721Z,17.24
2022-10-04T19:50:33.629Z,17.25
2022-10-04T19:53:08.275Z,17.26
2022-10-04T19:55:44.977Z,17.27
2022-10-04T19:58:27.562Z,17.28
2022-10-04T20:00:55.883Z,17.28
2022-10-04T20:03:24.151Z,17.31
2022-10-04T20:05:54.299Z,17.33
2022-10-04T20:08:57.951Z,17.32
2022-10-04T20:11:51.889Z,17.30
2022-10-04T20:14:48.208Z,17.30
2022-10-04T20:17:32.938Z,17.29
2022-10-04T20:20:01.622Z,17.29
2022-10-04T20:22:55.546Z,17.26
2022-10-04T20:26:02.837Z,17.26
2022-10-04T20:28:46.141Z,17.26
2022-10-04T20:31:55.678Z,17.26
2022-10-04T20:34:33.133Z,17.24
2022-10-04T20:37:01.733Z,17.27
2022-10-04T20:40:00.450Z,17.27
2022-10-04T20:42:34.701Z,17.28
2022-10-04T20:45:22.994Z,17.29
2022-10-04T20:47:54.173Z,17.30
2022-10-04T20:50:49.499Z,17.30
2022-10-04T20:53:22.334Z,17.30
2022-10-04T20:55:53.967Z,17.33
2022-10-04T20:58:35.002Z,17.33
2022-10-04T21:01:17.047Z,17.33
2022-10-04T21:03:45.306Z,17.32
2022-10-04T21:06:14.409Z,17.32
2022-10-04T21:08:42.698Z,17.33
2022-10-04T21:11:19.706Z,17.33
2022-10-04T21:13:57.979Z,17.33
2022-10-04T21:16:47.930Z,17.30
2022-10-04T21:19:50.401Z,17.28
2022-10-04T21:22:36.565Z,17.28
2022-10-04T21:25:40.362Z,17.26
2022-10-04T21:28:35.312Z,17.25
2022-10-04T21:31:04.715Z,17.23
2022-10-04T21:33:36.208Z,17.22
2022-10-04T21:36:05.986Z,17.22
2022-10-04T21:38:34.517Z,17.20
2022-10-04T21:41:02.960Z,17.20
2022-10-04T21:43:31.418Z,17.20
2022-10-04T21:45:59.771Z,17.19
2022-10-04T21:48:28.385Z,17.19
2022-10-04T21:50:57.929Z,17.19
2022-10-04T21:53:26.187Z,17.20
2022-10-04T21:55:54.387Z,17.20
2022-10-04T21:58:22.720Z,17.20
2022-10-04T22:00:50.976Z,17.19
2022-10-04T22:03:19.197Z,17.19
2022-10-04T22:05:47.371Z,17.20
2022-10-04T22:08:16.908Z,17.19
2022-10-04T22:10:45.665Z,17.18
2022-10-04T22:13:14.000Z,17.17
2022-10-04T22:15:42.323Z,17.17
2022-10-04T22:18:10.441Z,17.16
2022-10-04T22:20:39.013Z,17.15
2022-10-04T22:23:19.447Z,17.15
2022-10-04T22:25:48.134Z,17.17
2022-10-04T22:28:22.888Z,17.18
2022-10-04T22:30:53.374Z,17.18
2022-10-04T22:33:35.016Z,17.18
2022-10-04T22:36:15.438Z,17.17
2022-10-04T22:38:50.121Z,17.19
2022-10-04T22:41:20.334Z,17.19
2022-10-04T22:43:50.469Z,17.19
2022-10-04T22:46:20.908Z,17.19
2022-10-04T22:48:50.848Z,17.21
2022-10-04T22:51:18.994Z,17.22
2022-10-04T22:53:49.524Z,17.22
2022-10-04T22:56:17.781Z,17.23
2022-10-04T22:58:46.111Z,17.25
2022-10-04T23:01:16.860Z,17.27
2022-10-04T23:03:48.403Z,17.28
2022-10-04T23:06:17.078Z,17.29
2022-10-04T23:08:46.080Z,17.32
2022-10-04T23:11:15.662Z,17.30
2022-10-04T23:13:43.775Z,17.32
2022-10-04T23:16:17.343Z,17.33
2022-10-04T23:18:45.577Z,17.34
2022-10-04T23:21:22.707Z,17.34
2022-10-04T23:23:52.874Z,17.36
2022-10-04T23:26:25.568Z,17.35
2022-10-04T23:28:53.979Z,17.36
2022-10-04T23:31:25.423Z,17.36
2022-10-04T23:33:55.903Z,17.38
2022-10-04T23:36:24.871Z,17.38
2022-10-04T23:38:58.023Z,17.37
2022-10-04T23:41:28.104Z,17.38
2022-10-04T23:43:56.320Z,17.37
2022-10-04T23:46:25.305Z,17.36
2022-10-04T23:48:53.638Z,17.36
2022-10-04T23:51:22.247Z,17.35
2022-10-04T23:53:51.593Z,17.35
2022-10-04T23:56:23.568Z,17.35
2022-10-04T23:58:56.672Z,17.34
